Terminal Aerodrome Forecast
Issued by NWS Albany, NY

Home | Current Version | Previous Version | Text Only | Print | Product List | Glossary On
Versions: 1 2 3 4 5 6 7 8 9 10 11 12 13 14 15 16
000
FTUS41 KALY 312350
TAFALB
TAF
KALB 312350Z 0100/0124 19005KT P6SM SCT050 OVC130
     FM010300 VRB03KT P6SM BKN050 OVC130
     FM010900 30004KT 4SM BR BKN025 OVC050
     FM011400 33008KT P6SM SCT025 SCT050
     FM011700 34010KT P6SM SCT050 SCT250=

USA.gov is the U.S. government's official web portal to all federal, state and local government web resources and services.